sensor_id;sensor_type;location;lat;lon;timestamp;temperature;humidity
49855;DHT22;35752;52.164;21.244;2023-02-01T00:01:09;3.00;99.90
49855;DHT22;35752;52.164;21.244;2023-02-01T00:03:35;3.10;99.90
49855;DHT22;35752;52.164;21.244;2023-02-01T00:06:02;3.00;99.90
49855;DHT22;35752;52.164;21.244;2023-02-01T00:08:28;3.10;99.90
49855;DHT22;35752;52.164;21.244;2023-02-01T00:11:00;3.10;99.90
49855;DHT22;35752;52.164;21.244;2023-02-01T00:13:27;3.10;99.90
49855;DHT22;35752;52.164;21.244;2023-02-01T00:15:53;3.10;99.90
49855;DHT22;35752;52.164;21.244;2023-02-01T00:18:18;3.10;99.90
49855;DHT22;35752;52.164;21.244;2023-02-01T00:20:45;3.10;99.90
49855;DHT22;35752;52.164;21.244;2023-02-01T00:23:10;3.10;99.90
49855;DHT22;35752;52.164;21.244;2023-02-01T00:25:36;3.20;99.90
49855;DHT22;35752;52.164;21.244;2023-02-01T00:28:01;3.10;99.90
49855;DHT22;35752;52.164;21.244;2023-02-01T00:30:27;3.10;99.90
49855;DHT22;35752;52.164;21.244;2023-02-01T00:32:52;3.10;99.90
49855;DHT22;35752;52.164;21.244;2023-02-01T00:35:18;3.10;99.90
49855;DHT22;35752;52.164;21.244;2023-02-01T00:37:43;3.10;99.90
49855;DHT22;35752;52.164;21.244;2023-02-01T00:40:09;3.10;99.90
49855;DHT22;35752;52.164;21.244;2023-02-01T00:42:35;3.10;99.90
49855;DHT22;35752;52.164;21.244;2023-02-01T00:45:00;3.10;99.90
49855;DHT22;35752;52.164;21.244;2023-02-01T00:47:27;3.10;99.90
49855;DHT22;35752;52.164;21.244;2023-02-01T00:49:52;3.10;99.90
49855;DHT22;35752;52.164;21.244;2023-02-01T00:52:18;3.10;99.90
49855;DHT22;35752;52.164;21.244;2023-02-01T00:54:43;3.10;99.90
49855;DHT22;35752;52.164;21.244;2023-02-01T00:57:09;3.10;99.90
49855;DHT22;35752;52.164;21.244;2023-02-01T00:59:34;3.20;99.90
49855;DHT22;35752;52.164;21.244;2023-02-01T01:02:00;3.20;99.90
49855;DHT22;35752;52.164;21.244;2023-02-01T01:04:25;3.30;99.90
49855;DHT22;35752;52.164;21.244;2023-02-01T01:06:51;3.30;99.90
49855;DHT22;35752;52.164;21.244;2023-02-01T01:09:16;3.30;99.90
49855;DHT22;35752;52.164;21.244;2023-02-01T01:11:42;3.40;99.90
49855;DHT22;35752;52.164;21.244;2023-02-01T01:14:08;3.40;99.90
49855;DHT22;35752;52.164;21.244;2023-02-01T01:16:33;3.40;99.90
49855;DHT22;35752;52.164;21.244;2023-02-01T01:18:59;3.40;99.90
49855;DHT22;35752;52.164;21.244;2023-02-01T01:21:25;3.40;99.90
49855;DHT22;35752;52.164;21.244;2023-02-01T01:23:51;3.40;99.90
49855;DHT22;35752;52.164;21.244;2023-02-01T01:26:18;3.40;99.90
49855;DHT22;35752;52.164;21.244;2023-02-01T01:28:44;3.40;99.90
49855;DHT22;35752;52.164;21.244;2023-02-01T01:31:10;3.40;99.90
49855;DHT22;35752;52.164;21.244;2023-02-01T01:33:36;3.30;99.90
49855;DHT22;35752;52.164;21.244;2023-02-01T01:36:01;3.30;99.90
49855;DHT22;35752;52.164;21.244;2023-02-01T01:38:27;3.30;99.90
49855;DHT22;35752;52.164;21.244;2023-02-01T01:40:52;3.30;99.90
49855;DHT22;35752;52.164;21.244;2023-02-01T01:43:19;3.30;99.90
49855;DHT22;35752;52.164;21.244;2023-02-01T01:45:47;3.30;99.90
49855;DHT22;35752;52.164;21.244;2023-02-01T01:48:15;3.30;99.90
49855;DHT22;35752;52.164;21.244;2023-02-01T01:50:48;3.30;99.90
49855;DHT22;35752;52.164;21.244;2023-02-01T01:53:20;3.30;99.90
49855;DHT22;35752;52.164;21.244;2023-02-01T01:55:47;3.30;99.90
49855;DHT22;35752;52.164;21.244;2023-02-01T01:58:17;3.30;99.90
49855;DHT22;35752;52.164;21.244;2023-02-01T02:00:44;3.30;99.90
49855;DHT22;35752;52.164;21.244;2023-02-01T02:03:20;3.30;99.90
49855;DHT22;35752;52.164;21.244;2023-02-01T02:05:47;3.30;99.90
49855;DHT22;35752;52.164;21.244;2023-02-01T02:08:13;3.30;99.90
49855;DHT22;35752;52.164;21.244;2023-02-01T02:10:39;3.40;99.90
49855;DHT22;35752;52.164;21.244;2023-02-01T02:13:23;3.30;99.90
49855;DHT22;35752;52.164;21.244;2023-02-01T02:34:08;3.30;99.90
49855;DHT22;35752;52.164;21.244;2023-02-01T02:36:43;3.20;99.90
49855;DHT22;35752;52.164;21.244;2023-02-01T02:44:36;3.20;99.90
49855;DHT22;35752;52.164;21.244;2023-02-01T02:47:33;3.30;99.90
49855;DHT22;35752;52.164;21.244;2023-02-01T02:50:09;3.30;99.90
49855;DHT22;35752;52.164;21.244;2023-02-01T02:52:58;3.30;99.90
49855;DHT22;35752;52.164;21.244;2023-02-01T02:55:45;3.30;99.90
49855;DHT22;35752;52.164;21.244;2023-02-01T02:58:11;3.30;99.90
49855;DHT22;35752;52.164;21.244;2023-02-01T03:00:56;3.30;99.90
49855;DHT22;35752;52.164;21.244;2023-02-01T03:03:42;3.30;99.90
49855;DHT22;35752;52.164;21.244;2023-02-01T03:06:26;3.30;99.90
49855;DHT22;35752;52.164;21.244;2023-02-01T03:08:53;3.30;99.90
49855;DHT22;35752;52.164;21.244;2023-02-01T03:11:22;3.30;99.90
49855;DHT22;35752;52.164;21.244;2023-02-01T03:13:49;3.40;99.90
49855;DHT22;35752;52.164;21.244;2023-02-01T03:18:55;3.40;99.90
49855;DHT22;35752;52.164;21.244;2023-02-01T03:23:55;3.40;99.90
49855;DHT22;35752;52.164;21.244;2023-02-01T03:26:21;3.40;99.90
49855;DHT22;35752;52.164;21.244;2023-02-01T03:29:07;3.40;99.90
49855;DHT22;35752;52.164;21.244;2023-02-01T03:31:34;3.30;99.90
49855;DHT22;35752;52.164;21.244;2023-02-01T03:33:59;3.30;99.90
49855;DHT22;35752;52.164;21.244;2023-02-01T03:36:32;3.30;99.90
49855;DHT22;35752;52.164;21.244;2023-02-01T03:39:05;3.40;99.90
49855;DHT22;35752;52.164;21.244;2023-02-01T03:44:09;3.40;99.90
49855;DHT22;35752;52.164;21.244;2023-02-01T03:46:42;3.40;99.90
49855;DHT22;35752;52.164;21.244;2023-02-01T03:49:10;3.40;99.90
49855;DHT22;35752;52.164;21.244;2023-02-01T03:51:40;3.30;99.90
49855;DHT22;35752;52.164;21.244;2023-02-01T03:54:06;3.30;99.90
49855;DHT22;35752;52.164;21.244;2023-02-01T03:56:33;3.30;99.90
49855;DHT22;35752;52.164;21.244;2023-02-01T03:58:59;3.20;99.90
49855;DHT22;35752;52.164;21.244;2023-02-01T04:01:26;3.20;99.90
49855;DHT22;35752;52.164;21.244;2023-02-01T04:03:51;3.20;99.90
49855;DHT22;35752;52.164;21.244;2023-02-01T04:06:17;3.20;99.90
49855;DHT22;35752;52.164;21.244;2023-02-01T04:08:42;3.10;99.90
49855;DHT22;35752;52.164;21.244;2023-02-01T04:11:08;3.20;99.90
49855;DHT22;35752;52.164;21.244;2023-02-01T04:13:33;3.20;99.90
49855;DHT22;35752;52.164;21.244;2023-02-01T04:15:59;3.20;99.90
49855;DHT22;35752;52.164;21.244;2023-02-01T04:18:24;3.10;99.90
49855;DHT22;35752;52.164;21.244;2023-02-01T04:20:50;3.10;99.90
49855;DHT22;35752;52.164;21.244;2023-02-01T04:23:15;3.20;99.90
49855;DHT22;35752;52.164;21.244;2023-02-01T04:25:41;3.20;99.90
49855;DHT22;35752;52.164;21.244;2023-02-01T04:28:06;3.10;99.90
49855;DHT22;35752;52.164;21.244;2023-02-01T04:30:32;3.20;99.90
49855;DHT22;35752;52.164;21.244;2023-02-01T04:32:58;3.20;99.90
49855;DHT22;35752;52.164;21.244;2023-02-01T04:35:23;3.20;99.90
49855;DHT22;35752;52.164;21.244;2023-02-01T04:37:49;3.20;99.90
49855;DHT22;35752;52.164;21.244;2023-02-01T04:40:14;3.30;99.90
49855;DHT22;35752;52.164;21.244;2023-02-01T04:42:40;3.30;99.90
49855;DHT22;35752;52.164;21.244;2023-02-01T04:45:06;3.30;99.90
49855;DHT22;35752;52.164;21.244;2023-02-01T04:47:32;3.30;99.90
49855;DHT22;35752;52.164;21.244;2023-02-01T04:49:57;3.40;99.90
49855;DHT22;35752;52.164;21.244;2023-02-01T04:52:23;3.40;99.90
49855;DHT22;35752;52.164;21.244;2023-02-01T04:54:48;3.40;99.90
49855;DHT22;35752;52.164;21.244;2023-02-01T04:57:14;3.50;99.90
49855;DHT22;35752;52.164;21.244;2023-02-01T04:59:40;3.40;99.90
49855;DHT22;35752;52.164;21.244;2023-02-01T05:02:05;3.40;99.90
49855;DHT22;35752;52.164;21.244;2023-02-01T05:04:31;3.50;99.90
49855;DHT22;35752;52.164;21.244;2023-02-01T05:06:56;3.50;99.90
49855;DHT22;35752;52.164;21.244;2023-02-01T05:09:22;3.50;99.90
49855;DHT22;35752;52.164;21.244;2023-02-01T05:11:47;3.50;99.90
49855;DHT22;35752;52.164;21.244;2023-02-01T05:14:31;3.50;99.90
49855;DHT22;35752;52.164;21.244;2023-02-01T05:16:57;3.50;99.90
49855;DHT22;35752;52.164;21.244;2023-02-01T05:19:22;3.60;99.90
49855;DHT22;35752;52.164;21.244;2023-02-01T05:21:48;3.50;99.90
49855;DHT22;35752;52.164;21.244;2023-02-01T05:24:13;3.60;99.90
49855;DHT22;35752;52.164;21.244;2023-02-01T05:26:41;3.50;99.90
49855;DHT22;35752;52.164;21.244;2023-02-01T05:29:08;3.60;99.90
49855;DHT22;35752;52.164;21.244;2023-02-01T05:31:33;3.50;99.90
49855;DHT22;35752;52.164;21.244;2023-02-01T05:33:59;3.60;99.90
49855;DHT22;35752;52.164;21.244;2023-02-01T05:36:25;3.60;99.90
49855;DHT22;35752;52.164;21.244;2023-02-01T05:38:50;3.50;99.90
49855;DHT22;35752;52.164;21.244;2023-02-01T05:41:16;3.60;99.90
49855;DHT22;35752;52.164;21.244;2023-02-01T05:43:41;3.60;99.90
49855;DHT22;35752;52.164;21.244;2023-02-01T05:46:07;3.60;99.90
49855;DHT22;35752;52.164;21.244;2023-02-01T05:48:35;3.60;99.90
49855;DHT22;35752;52.164;21.244;2023-02-01T05:51:01;3.60;99.90
49855;DHT22;35752;52.164;21.244;2023-02-01T05:53:26;3.50;99.90
49855;DHT22;35752;52.164;21.244;2023-02-01T05:55:52;3.60;99.90
49855;DHT22;35752;52.164;21.244;2023-02-01T05:58:17;3.60;99.90
49855;DHT22;35752;52.164;21.244;2023-02-01T06:00:43;3.60;99.90
49855;DHT22;35752;52.164;21.244;2023-02-01T06:03:08;3.50;99.90
49855;DHT22;35752;52.164;21.244;2023-02-01T06:05:34;3.50;99.90
49855;DHT22;35752;52.164;21.244;2023-02-01T06:08:00;3.50;99.90
49855;DHT22;35752;52.164;21.244;2023-02-01T06:10:25;3.50;99.90
49855;DHT22;35752;52.164;21.244;2023-02-01T06:12:51;3.50;99.90
49855;DHT22;35752;52.164;21.244;2023-02-01T06:15:16;3.60;99.90
49855;DHT22;35752;52.164;21.244;2023-02-01T06:17:43;3.50;99.90
49855;DHT22;35752;52.164;21.244;2023-02-01T06:20:09;3.50;99.90
49855;DHT22;35752;52.164;21.244;2023-02-01T06:22:34;3.50;99.90
49855;DHT22;35752;52.164;21.244;2023-02-01T06:25:02;3.60;99.90
49855;DHT22;35752;52.164;21.244;2023-02-01T06:27:27;3.50;99.90
49855;DHT22;35752;52.164;21.244;2023-02-01T06:29:53;3.60;99.90
49855;DHT22;35752;52.164;21.244;2023-02-01T06:32:20;3.60;99.90
49855;DHT22;35752;52.164;21.244;2023-02-01T06:34:46;3.60;99.90
49855;DHT22;35752;52.164;21.244;2023-02-01T06:37:11;3.60;99.90
49855;DHT22;35752;52.164;21.244;2023-02-01T06:39:37;3.60;99.90
49855;DHT22;35752;52.164;21.244;2023-02-01T06:42:02;3.60;99.90
49855;DHT22;35752;52.164;21.244;2023-02-01T06:44:28;3.60;99.90
49855;DHT22;35752;52.164;21.244;2023-02-01T06:46:53;3.70;99.90
49855;DHT22;35752;52.164;21.244;2023-02-01T06:49:20;3.70;99.90
49855;DHT22;35752;52.164;21.244;2023-02-01T06:51:45;3.70;99.90
49855;DHT22;35752;52.164;21.244;2023-02-01T06:54:14;3.80;99.90
49855;DHT22;35752;52.164;21.244;2023-02-01T06:56:40;3.70;99.90
49855;DHT22;35752;52.164;21.244;2023-02-01T06:59:06;3.70;99.90
49855;DHT22;35752;52.164;21.244;2023-02-01T07:01:32;3.70;99.90
49855;DHT22;35752;52.164;21.244;2023-02-01T07:03:57;3.80;99.90
49855;DHT22;35752;52.164;21.244;2023-02-01T07:06:23;3.80;99.90
49855;DHT22;35752;52.164;21.244;2023-02-01T07:08:48;3.80;99.90
49855;DHT22;35752;52.164;21.244;2023-02-01T07:11:14;3.80;99.90
49855;DHT22;35752;52.164;21.244;2023-02-01T07:13:40;3.80;99.90
49855;DHT22;35752;52.164;21.244;2023-02-01T07:16:08;3.80;99.90
49855;DHT22;35752;52.164;21.244;2023-02-01T07:18:34;3.80;99.90
49855;DHT22;35752;52.164;21.244;2023-02-01T07:20:59;3.80;99.90
49855;DHT22;35752;52.164;21.244;2023-02-01T07:23:25;3.80;99.90
49855;DHT22;35752;52.164;21.244;2023-02-01T07:25:54;3.80;99.90
49855;DHT22;35752;52.164;21.244;2023-02-01T07:28:20;3.80;99.90
49855;DHT22;35752;52.164;21.244;2023-02-01T07:30:45;3.80;99.90
49855;DHT22;35752;52.164;21.244;2023-02-01T07:33:22;3.80;99.90
49855;DHT22;35752;52.164;21.244;2023-02-01T07:35:49;3.90;99.90
49855;DHT22;35752;52.164;21.244;2023-02-01T07:38:14;3.90;99.90
49855;DHT22;35752;52.164;21.244;2023-02-01T07:40:40;3.90;99.90
49855;DHT22;35752;52.164;21.244;2023-02-01T07:43:06;3.90;99.90
49855;DHT22;35752;52.164;21.244;2023-02-01T07:45:33;3.90;99.90
49855;DHT22;35752;52.164;21.244;2023-02-01T07:47:59;3.90;99.90
49855;DHT22;35752;52.164;21.244;2023-02-01T07:50:24;3.90;99.90
49855;DHT22;35752;52.164;21.244;2023-02-01T07:52:50;3.90;99.90
49855;DHT22;35752;52.164;21.244;2023-02-01T07:55:15;3.90;99.90
49855;DHT22;35752;52.164;21.244;2023-02-01T07:57:41;3.90;99.90
49855;DHT22;35752;52.164;21.244;2023-02-01T08:00:08;3.90;99.90
49855;DHT22;35752;52.164;21.244;2023-02-01T08:02:53;4.00;99.90
49855;DHT22;35752;52.164;21.244;2023-02-01T08:05:18;3.90;99.90
49855;DHT22;35752;52.164;21.244;2023-02-01T08:07:48;4.00;99.90
49855;DHT22;35752;52.164;21.244;2023-02-01T08:10:13;4.00;99.90
49855;DHT22;35752;52.164;21.244;2023-02-01T08:12:39;4.00;99.90
49855;DHT22;35752;52.164;21.244;2023-02-01T08:15:04;4.00;99.90
49855;DHT22;35752;52.164;21.244;2023-02-01T08:17:30;4.00;99.90
49855;DHT22;35752;52.164;21.244;2023-02-01T08:19:55;3.90;99.90
49855;DHT22;35752;52.164;21.244;2023-02-01T08:22:21;3.90;86.50
49855;DHT22;35752;52.164;21.244;2023-02-01T08:24:50;3.80;99.90
49855;DHT22;35752;52.164;21.244;2023-02-01T08:27:15;3.80;99.90
49855;DHT22;35752;52.164;21.244;2023-02-01T08:29:41;3.80;61.50
49855;DHT22;35752;52.164;21.244;2023-02-01T08:32:06;3.80;99.90
49855;DHT22;35752;52.164;21.244;2023-02-01T08:34:32;3.70;99.90
49855;DHT22;35752;52.164;21.244;2023-02-01T08:36:57;3.80;99.90
49855;DHT22;35752;52.164;21.244;2023-02-01T08:39:24;3.80;99.90
49855;DHT22;35752;52.164;21.244;2023-02-01T08:41:49;3.80;99.90
49855;DHT22;35752;52.164;21.244;2023-02-01T08:44:35;3.70;99.90
49855;DHT22;35752;52.164;21.244;2023-02-01T08:47:02;3.70;99.90
49855;DHT22;35752;52.164;21.244;2023-02-01T08:49:27;3.70;99.90
49855;DHT22;35752;52.164;21.244;2023-02-01T08:51:53;3.70;99.90
49855;DHT22;35752;52.164;21.244;2023-02-01T08:54:19;3.70;99.90
49855;DHT22;35752;52.164;21.244;2023-02-01T08:56:45;3.70;99.90
49855;DHT22;35752;52.164;21.244;2023-02-01T08:59:10;3.70;99.90
49855;DHT22;35752;52.164;21.244;2023-02-01T09:01:36;3.70;99.90
49855;DHT22;35752;52.164;21.244;2023-02-01T09:04:01;3.70;99.90
49855;DHT22;35752;52.164;21.244;2023-02-01T09:06:27;3.70;99.90
49855;DHT22;35752;52.164;21.244;2023-02-01T09:08:52;3.70;99.90
49855;DHT22;35752;52.164;21.244;2023-02-01T09:11:18;3.60;99.90
49855;DHT22;35752;52.164;21.244;2023-02-01T09:13:47;3.60;99.90
49855;DHT22;35752;52.164;21.244;2023-02-01T09:16:13;3.60;99.90
49855;DHT22;35752;52.164;21.244;2023-02-01T09:18:38;3.70;99.90
49855;DHT22;35752;52.164;21.244;2023-02-01T09:21:07;3.70;99.90
49855;DHT22;35752;52.164;21.244;2023-02-01T09:23:33;3.70;99.90
49855;DHT22;35752;52.164;21.244;2023-02-01T09:25:59;3.70;99.90
49855;DHT22;35752;52.164;21.244;2023-02-01T09:28:25;3.80;99.90
49855;DHT22;35752;52.164;21.244;2023-02-01T09:30:54;3.80;99.90
49855;DHT22;35752;52.164;21.244;2023-02-01T09:33:20;3.90;99.90
49855;DHT22;35752;52.164;21.244;2023-02-01T09:35:46;4.00;99.90
49855;DHT22;35752;52.164;21.244;2023-02-01T09:38:12;3.90;99.90
49855;DHT22;35752;52.164;21.244;2023-02-01T09:40:39;4.10;99.90
49855;DHT22;35752;52.164;21.244;2023-02-01T09:43:11;4.10;99.90
49855;DHT22;35752;52.164;21.244;2023-02-01T09:46:03;4.20;99.90
49855;DHT22;35752;52.164;21.244;2023-02-01T09:48:34;4.20;99.90
49855;DHT22;35752;52.164;21.244;2023-02-01T09:51:02;4.30;99.90
49855;DHT22;35752;52.164;21.244;2023-02-01T09:53:30;4.30;99.90
49855;DHT22;35752;52.164;21.244;2023-02-01T09:56:05;4.40;99.90
49855;DHT22;35752;52.164;21.244;2023-02-01T09:58:39;4.50;99.90
49855;DHT22;35752;52.164;21.244;2023-02-01T10:01:10;4.60;99.90
49855;DHT22;35752;52.164;21.244;2023-02-01T10:03:40;4.60;99.90
49855;DHT22;35752;52.164;21.244;2023-02-01T10:16:33;4.80;99.90
49855;DHT22;35752;52.164;21.244;2023-02-01T10:21:46;4.80;99.90
49855;DHT22;35752;52.164;21.244;2023-02-01T10:26:53;4.80;99.90
49855;DHT22;35752;52.164;21.244;2023-02-01T10:29:22;4.80;99.90
49855;DHT22;35752;52.164;21.244;2023-02-01T10:31:50;4.90;99.90
49855;DHT22;35752;52.164;21.244;2023-02-01T10:34:30;4.90;99.90
49855;DHT22;35752;52.164;21.244;2023-02-01T10:37:00;4.90;99.90
49855;DHT22;35752;52.164;21.244;2023-02-01T10:39:26;4.90;99.90
49855;DHT22;35752;52.164;21.244;2023-02-01T10:41:51;4.90;99.90
49855;DHT22;35752;52.164;21.244;2023-02-01T10:44:18;4.90;99.90
49855;DHT22;35752;52.164;21.244;2023-02-01T10:46:45;4.90;99.90
49855;DHT22;35752;52.164;21.244;2023-02-01T10:49:16;4.80;99.90
49855;DHT22;35752;52.164;21.244;2023-02-01T10:51:45;4.80;99.90
49855;DHT22;35752;52.164;21.244;2023-02-01T10:54:22;4.80;99.90
49855;DHT22;35752;52.164;21.244;2023-02-01T10:56:56;4.80;99.90
49855;DHT22;35752;52.164;21.244;2023-02-01T10:59:24;4.90;99.90
49855;DHT22;35752;52.164;21.244;2023-02-01T11:01:50;4.90;99.90
49855;DHT22;35752;52.164;21.244;2023-02-01T11:04:22;4.90;99.90
49855;DHT22;35752;52.164;21.244;2023-02-01T11:06:53;4.90;99.90
49855;DHT22;35752;52.164;21.244;2023-02-01T11:09:30;4.90;99.90
49855;DHT22;35752;52.164;21.244;2023-02-01T11:11:59;5.00;99.90
49855;DHT22;35752;52.164;21.244;2023-02-01T11:16:58;5.10;99.90
49855;DHT22;35752;52.164;21.244;2023-02-01T11:19:25;5.10;99.90
49855;DHT22;35752;52.164;21.244;2023-02-01T11:21:51;5.10;99.90
49855;DHT22;35752;52.164;21.244;2023-02-01T11:24:21;5.10;99.90
49855;DHT22;35752;52.164;21.244;2023-02-01T11:26:47;5.10;99.90
49855;DHT22;35752;52.164;21.244;2023-02-01T11:29:14;5.10;99.90
49855;DHT22;35752;52.164;21.244;2023-02-01T11:31:42;5.10;99.90
49855;DHT22;35752;52.164;21.244;2023-02-01T11:34:20;5.10;99.90
49855;DHT22;35752;52.164;21.244;2023-02-01T11:36:46;5.10;99.90
49855;DHT22;35752;52.164;21.244;2023-02-01T11:41:42;5.20;99.90
49855;DHT22;35752;52.164;21.244;2023-02-01T11:44:22;5.20;99.90
49855;DHT22;35752;52.164;21.244;2023-02-01T11:46:48;5.20;99.90
49855;DHT22;35752;52.164;21.244;2023-02-01T11:49:23;5.20;99.90
49855;DHT22;35752;52.164;21.244;2023-02-01T11:51:53;5.20;99.90
49855;DHT22;35752;52.164;21.244;2023-02-01T11:57:00;5.10;99.90
49855;DHT22;35752;52.164;21.244;2023-02-01T12:07:14;5.10;99.90
49855;DHT22;35752;52.164;21.244;2023-02-01T12:27:44;5.20;99.90
49855;DHT22;35752;52.164;21.244;2023-02-01T12:42:47;5.10;99.90
49855;DHT22;35752;52.164;21.244;2023-02-01T12:45:25;5.20;99.90
49855;DHT22;35752;52.164;21.244;2023-02-01T12:47:52;5.20;99.90
49855;DHT22;35752;52.164;21.244;2023-02-01T12:50:26;5.20;99.90
49855;DHT22;35752;52.164;21.244;2023-02-01T12:52:58;5.20;99.90
49855;DHT22;35752;52.164;21.244;2023-02-01T12:58:03;5.10;99.90
49855;DHT22;35752;52.164;21.244;2023-02-01T13:00:32;5.10;99.90
49855;DHT22;35752;52.164;21.244;2023-02-01T13:05:34;5.00;99.90
49855;DHT22;35752;52.164;21.244;2023-02-01T13:13:02;5.00;99.90
49855;DHT22;35752;52.164;21.244;2023-02-01T13:15:31;5.00;99.90
49855;DHT22;35752;52.164;21.244;2023-02-01T13:17:59;5.10;99.90
49855;DHT22;35752;52.164;21.244;2023-02-01T13:20:36;5.10;99.90
49855;DHT22;35752;52.164;21.244;2023-02-01T13:23:11;5.10;99.90
49855;DHT22;35752;52.164;21.244;2023-02-01T13:28:12;5.20;99.90
49855;DHT22;35752;52.164;21.244;2023-02-01T13:40:52;5.10;99.90
49855;DHT22;35752;52.164;21.244;2023-02-01T13:43:22;5.10;99.90
49855;DHT22;35752;52.164;21.244;2023-02-01T13:45:49;5.10;99.90
49855;DHT22;35752;52.164;21.244;2023-02-01T13:48:37;5.10;99.90
49855;DHT22;35752;52.164;21.244;2023-02-01T13:51:04;5.10;99.90
49855;DHT22;35752;52.164;21.244;2023-02-01T13:53:30;5.10;99.90
49855;DHT22;35752;52.164;21.244;2023-02-01T13:55:58;5.00;99.90
49855;DHT22;35752;52.164;21.244;2023-02-01T13:58:34;5.00;99.90
49855;DHT22;35752;52.164;21.244;2023-02-01T14:01:31;5.10;99.90
49855;DHT22;35752;52.164;21.244;2023-02-01T14:04:02;5.00;99.90
49855;DHT22;35752;52.164;21.244;2023-02-01T14:09:13;5.00;99.90
49855;DHT22;35752;52.164;21.244;2023-02-01T14:16:39;4.90;99.90
49855;DHT22;35752;52.164;21.244;2023-02-01T14:19:07;4.90;99.90
49855;DHT22;35752;52.164;21.244;2023-02-01T14:21:34;4.90;99.90
49855;DHT22;35752;52.164;21.244;2023-02-01T14:34:18;4.80;99.90
49855;DHT22;35752;52.164;21.244;2023-02-01T14:36:50;4.80;99.90
49855;DHT22;35752;52.164;21.244;2023-02-01T14:39:26;4.80;99.90
49855;DHT22;35752;52.164;21.244;2023-02-01T14:41:53;4.80;99.90
49855;DHT22;35752;52.164;21.244;2023-02-01T14:44:23;4.80;99.90
49855;DHT22;35752;52.164;21.244;2023-02-01T14:52:19;4.80;99.90
49855;DHT22;35752;52.164;21.244;2023-02-01T14:54:50;4.80;99.90
49855;DHT22;35752;52.164;21.244;2023-02-01T14:57:17;4.80;99.90
49855;DHT22;35752;52.164;21.244;2023-02-01T14:59:44;4.80;99.90
49855;DHT22;35752;52.164;21.244;2023-02-01T15:02:26;4.80;99.90
49855;DHT22;35752;52.164;21.244;2023-02-01T15:04:55;4.70;99.90
49855;DHT22;35752;52.164;21.244;2023-02-01T15:07:21;4.80;99.90
49855;DHT22;35752;52.164;21.244;2023-02-01T15:09:47;4.70;99.90
49855;DHT22;35752;52.164;21.244;2023-02-01T15:12:17;4.80;99.90
49855;DHT22;35752;52.164;21.244;2023-02-01T15:14:46;4.80;99.90
49855;DHT22;35752;52.164;21.244;2023-02-01T15:17:24;4.80;99.90
49855;DHT22;35752;52.164;21.244;2023-02-01T15:19:54;4.80;99.90
49855;DHT22;35752;52.164;21.244;2023-02-01T15:22:20;4.80;99.90
49855;DHT22;35752;52.164;21.244;2023-02-01T15:24:51;4.80;99.90
49855;DHT22;35752;52.164;21.244;2023-02-01T15:27:17;4.80;99.90
49855;DHT22;35752;52.164;21.244;2023-02-01T15:29:43;4.90;99.90
49855;DHT22;35752;52.164;21.244;2023-02-01T15:32:26;4.90;99.90
49855;DHT22;35752;52.164;21.244;2023-02-01T15:34:53;4.80;99.90
49855;DHT22;35752;52.164;21.244;2023-02-01T15:37:20;4.80;99.90
49855;DHT22;35752;52.164;21.244;2023-02-01T15:42:33;4.80;99.90
49855;DHT22;35752;52.164;21.244;2023-02-01T15:44:59;4.80;99.90
49855;DHT22;35752;52.164;21.244;2023-02-01T15:47:25;4.80;99.90
49855;DHT22;35752;52.164;21.244;2023-02-01T15:49:52;4.80;99.90
49855;DHT22;35752;52.164;21.244;2023-02-01T15:52:35;4.80;99.90
49855;DHT22;35752;52.164;21.244;2023-02-01T15:55:02;4.80;99.90
49855;DHT22;35752;52.164;21.244;2023-02-01T15:57:34;4.80;99.90
49855;DHT22;35752;52.164;21.244;2023-02-01T16:00:08;4.80;99.90
49855;DHT22;35752;52.164;21.244;2023-02-01T16:08:16;4.80;99.90
49855;DHT22;35752;52.164;21.244;2023-02-01T16:10:42;4.70;99.90
49855;DHT22;35752;52.164;21.244;2023-02-01T16:13:08;4.80;99.90
49855;DHT22;35752;52.164;21.244;2023-02-01T16:15:34;4.80;99.90
49855;DHT22;35752;52.164;21.244;2023-02-01T16:18:00;4.80;99.90
49855;DHT22;35752;52.164;21.244;2023-02-01T16:20:25;4.80;99.90
49855;DHT22;35752;52.164;21.244;2023-02-01T16:22:51;4.70;99.90
49855;DHT22;35752;52.164;21.244;2023-02-01T16:25:16;4.70;99.90
49855;DHT22;35752;52.164;21.244;2023-02-01T16:27:42;4.60;99.90
49855;DHT22;35752;52.164;21.244;2023-02-01T16:30:07;4.60;99.90
49855;DHT22;35752;52.164;21.244;2023-02-01T16:32:35;4.60;99.90
49855;DHT22;35752;52.164;21.244;2023-02-01T16:35:04;4.60;99.90
49855;DHT22;35752;52.164;21.244;2023-02-01T16:37:30;4.60;99.90
49855;DHT22;35752;52.164;21.244;2023-02-01T16:39:57;4.60;99.90
49855;DHT22;35752;52.164;21.244;2023-02-01T16:42:23;4.60;99.90
49855;DHT22;35752;52.164;21.244;2023-02-01T16:44:48;4.60;99.90
49855;DHT22;35752;52.164;21.244;2023-02-01T16:47:17;4.60;99.90
49855;DHT22;35752;52.164;21.244;2023-02-01T16:49:43;4.60;99.90
49855;DHT22;35752;52.164;21.244;2023-02-01T16:52:17;4.60;99.90
49855;DHT22;35752;52.164;21.244;2023-02-01T16:54:43;4.60;99.90
49855;DHT22;35752;52.164;21.244;2023-02-01T16:57:13;4.60;99.90
49855;DHT22;35752;52.164;21.244;2023-02-01T16:59:39;4.60;99.90
49855;DHT22;35752;52.164;21.244;2023-02-01T17:02:04;4.60;99.90
49855;DHT22;35752;52.164;21.244;2023-02-01T17:04:30;4.50;99.90
49855;DHT22;35752;52.164;21.244;2023-02-01T17:06:55;4.50;99.90
49855;DHT22;35752;52.164;21.244;2023-02-01T17:09:23;4.40;99.90
49855;DHT22;35752;52.164;21.244;2023-02-01T17:11:50;4.40;99.90
49855;DHT22;35752;52.164;21.244;2023-02-01T17:14:17;4.40;99.90
49855;DHT22;35752;52.164;21.244;2023-02-01T17:16:44;4.40;99.90
49855;DHT22;35752;52.164;21.244;2023-02-01T17:19:12;4.40;99.90
49855;DHT22;35752;52.164;21.244;2023-02-01T17:21:42;4.40;99.90
49855;DHT22;35752;52.164;21.244;2023-02-01T17:24:15;4.40;99.90
49855;DHT22;35752;52.164;21.244;2023-02-01T17:26:42;4.40;99.90
49855;DHT22;35752;52.164;21.244;2023-02-01T17:29:07;4.40;99.90
49855;DHT22;35752;52.164;21.244;2023-02-01T17:31:33;4.40;99.90
49855;DHT22;35752;52.164;21.244;2023-02-01T17:34:01;4.50;99.90
49855;DHT22;35752;52.164;21.244;2023-02-01T17:36:29;4.40;99.90
49855;DHT22;35752;52.164;21.244;2023-02-01T17:38:55;4.40;99.90
49855;DHT22;35752;52.164;21.244;2023-02-01T17:41:20;4.40;99.90
49855;DHT22;35752;52.164;21.244;2023-02-01T17:43:46;4.40;99.90
49855;DHT22;35752;52.164;21.244;2023-02-01T17:46:13;4.40;99.90
49855;DHT22;35752;52.164;21.244;2023-02-01T17:48:39;4.40;99.90
49855;DHT22;35752;52.164;21.244;2023-02-01T17:51:05;4.50;99.90
49855;DHT22;35752;52.164;21.244;2023-02-01T17:53:36;4.40;99.90
49855;DHT22;35752;52.164;21.244;2023-02-01T17:56:02;4.40;99.90
49855;DHT22;35752;52.164;21.244;2023-02-01T17:58:27;4.40;99.90
49855;DHT22;35752;52.164;21.244;2023-02-01T18:00:57;4.40;99.90
49855;DHT22;35752;52.164;21.244;2023-02-01T18:05:49;4.30;99.90